sensor_id;sensor_type;location;lat;lon;timestamp;P1;durP1;ratioP1;P2;durP2;ratioP2
49440;SDS011;35317;51.978;6.296;2022-08-21T00:03:25;14.93;;;6.80;;
49440;SDS011;35317;51.978;6.296;2022-08-21T00:08:25;14.23;;;7.32;;
49440;SDS011;35317;51.978;6.296;2022-08-21T00:13:26;13.90;;;6.65;;
49440;SDS011;35317;51.978;6.296;2022-08-21T00:18:27;13.73;;;7.97;;
49440;SDS011;35317;51.978;6.296;2022-08-21T00:23:28;15.77;;;7.45;;
49440;SDS011;35317;51.978;6.296;2022-08-21T00:28:28;13.98;;;7.40;;
49440;SDS011;35317;51.978;6.296;2022-08-21T00:33:30;12.95;;;7.05;;
49440;SDS011;35317;51.978;6.296;2022-08-21T00:38:32;15.68;;;7.50;;
49440;SDS011;35317;51.978;6.296;2022-08-21T00:43:35;8.70;;;5.68;;
49440;SDS011;35317;51.978;6.296;2022-08-21T00:48:37;13.68;;;6.22;;
49440;SDS011;35317;51.978;6.296;2022-08-21T00:53:39;11.32;;;5.80;;
49440;SDS011;35317;51.978;6.296;2022-08-21T00:58:43;9.18;;;5.55;;
49440;SDS011;35317;51.978;6.296;2022-08-21T01:03:43;13.82;;;6.22;;
49440;SDS011;35317;51.978;6.296;2022-08-21T01:08:45;11.60;;;5.85;;
49440;SDS011;35317;51.978;6.296;2022-08-21T01:13:46;11.20;;;5.97;;
49440;SDS011;35317;51.978;6.296;2022-08-21T01:18:49;14.10;;;6.57;;
49440;SDS011;35317;51.978;6.296;2022-08-21T01:23:52;12.57;;;6.15;;
49440;SDS011;35317;51.978;6.296;2022-08-21T01:34:31;13.77;;;6.45;;
49440;SDS011;35317;51.978;6.296;2022-08-21T01:39:34;11.88;;;5.78;;
49440;SDS011;35317;51.978;6.296;2022-08-21T01:44:35;12.90;;;5.47;;
49440;SDS011;35317;51.978;6.296;2022-08-21T01:49:36;10.80;;;5.40;;
49440;SDS011;35317;51.978;6.296;2022-08-21T01:54:39;13.90;;;5.07;;
49440;SDS011;35317;51.978;6.296;2022-08-21T01:59:41;9.63;;;5.22;;
49440;SDS011;35317;51.978;6.296;2022-08-21T02:04:42;9.93;;;5.10;;
49440;SDS011;35317;51.978;6.296;2022-08-21T02:09:43;10.60;;;6.25;;
49440;SDS011;35317;51.978;6.296;2022-08-21T02:14:44;8.63;;;5.45;;
49440;SDS011;35317;51.978;6.296;2022-08-21T02:19:44;11.80;;;5.72;;
49440;SDS011;35317;51.978;6.296;2022-08-21T02:24:45;12.13;;;5.40;;
49440;SDS011;35317;51.978;6.296;2022-08-21T02:29:46;13.57;;;5.32;;
49440;SDS011;35317;51.978;6.296;2022-08-21T02:34:47;12.20;;;6.35;;
49440;SDS011;35317;51.978;6.296;2022-08-21T02:39:48;11.68;;;6.15;;
49440;SDS011;35317;51.978;6.296;2022-08-21T02:44:49;9.52;;;5.97;;
49440;SDS011;35317;51.978;6.296;2022-08-21T02:49:51;7.53;;;5.15;;
49440;SDS011;35317;51.978;6.296;2022-08-21T02:54:52;11.73;;;6.60;;
49440;SDS011;35317;51.978;6.296;2022-08-21T02:59:53;11.10;;;7.43;;
49440;SDS011;35317;51.978;6.296;2022-08-21T03:04:54;13.38;;;6.53;;
49440;SDS011;35317;51.978;6.296;2022-08-21T03:09:54;13.13;;;7.55;;
49440;SDS011;35317;51.978;6.296;2022-08-21T03:14:55;12.00;;;6.40;;
49440;SDS011;35317;51.978;6.296;2022-08-21T03:19:57;13.40;;;6.30;;
49440;SDS011;35317;51.978;6.296;2022-08-21T03:24:58;10.27;;;7.13;;
49440;SDS011;35317;51.978;6.296;2022-08-21T03:29:59;18.05;;;7.85;;
49440;SDS011;35317;51.978;6.296;2022-08-21T03:35:00;11.55;;;7.97;;
49440;SDS011;35317;51.978;6.296;2022-08-21T03:40:07;12.10;;;8.02;;
49440;SDS011;35317;51.978;6.296;2022-08-21T03:45:10;15.32;;;8.45;;
49440;SDS011;35317;51.978;6.296;2022-08-21T03:50:10;15.05;;;8.40;;
49440;SDS011;35317;51.978;6.296;2022-08-21T03:55:11;14.82;;;9.02;;
49440;SDS011;35317;51.978;6.296;2022-08-21T04:00:12;13.88;;;10.00;;
49440;SDS011;35317;51.978;6.296;2022-08-21T04:05:16;15.88;;;9.80;;
49440;SDS011;35317;51.978;6.296;2022-08-21T04:10:27;15.02;;;8.95;;
49440;SDS011;35317;51.978;6.296;2022-08-21T04:15:30;17.08;;;9.35;;
49440;SDS011;35317;51.978;6.296;2022-08-21T04:20:31;18.20;;;9.88;;
49440;SDS011;35317;51.978;6.296;2022-08-21T04:25:33;12.27;;;8.63;;
49440;SDS011;35317;51.978;6.296;2022-08-21T04:30:34;12.10;;;8.85;;
49440;SDS011;35317;51.978;6.296;2022-08-21T04:35:35;16.83;;;10.65;;
49440;SDS011;35317;51.978;6.296;2022-08-21T04:40:36;15.75;;;12.00;;
49440;SDS011;35317;51.978;6.296;2022-08-21T04:45:39;20.00;;;13.00;;
49440;SDS011;35317;51.978;6.296;2022-08-21T04:50:44;17.98;;;13.68;;
49440;SDS011;35317;51.978;6.296;2022-08-21T04:56:02;21.80;;;14.93;;
49440;SDS011;35317;51.978;6.296;2022-08-21T05:06:19;22.45;;;13.88;;
49440;SDS011;35317;51.978;6.296;2022-08-21T05:11:21;17.15;;;13.55;;
49440;SDS011;35317;51.978;6.296;2022-08-21T05:16:22;20.05;;;14.27;;
49440;SDS011;35317;51.978;6.296;2022-08-21T05:21:23;24.05;;;14.70;;
49440;SDS011;35317;51.978;6.296;2022-08-21T05:26:23;20.98;;;14.52;;
49440;SDS011;35317;51.978;6.296;2022-08-21T05:31:24;21.88;;;15.52;;
49440;SDS011;35317;51.978;6.296;2022-08-21T05:36:25;24.90;;;15.10;;
49440;SDS011;35317;51.978;6.296;2022-08-21T05:41:26;27.83;;;15.23;;
49440;SDS011;35317;51.978;6.296;2022-08-21T05:46:27;22.30;;;16.25;;
49440;SDS011;35317;51.978;6.296;2022-08-21T05:51:27;23.02;;;17.15;;
49440;SDS011;35317;51.978;6.296;2022-08-21T05:56:28;27.33;;;19.17;;
49440;SDS011;35317;51.978;6.296;2022-08-21T06:01:29;27.52;;;20.95;;
49440;SDS011;35317;51.978;6.296;2022-08-21T06:06:30;29.38;;;21.05;;
49440;SDS011;35317;51.978;6.296;2022-08-21T06:11:31;31.30;;;19.40;;
49440;SDS011;35317;51.978;6.296;2022-08-21T06:16:33;30.38;;;18.83;;
49440;SDS011;35317;51.978;6.296;2022-08-21T06:21:34;31.45;;;19.77;;
49440;SDS011;35317;51.978;6.296;2022-08-21T06:26:34;27.50;;;18.10;;
49440;SDS011;35317;51.978;6.296;2022-08-21T06:31:35;27.88;;;19.33;;
49440;SDS011;35317;51.978;6.296;2022-08-21T06:36:36;27.02;;;18.48;;
49440;SDS011;35317;51.978;6.296;2022-08-21T06:41:37;22.20;;;17.23;;
49440;SDS011;35317;51.978;6.296;2022-08-21T06:46:38;23.85;;;16.98;;
49440;SDS011;35317;51.978;6.296;2022-08-21T06:51:39;24.75;;;17.27;;
49440;SDS011;35317;51.978;6.296;2022-08-21T06:56:40;22.88;;;17.27;;
49440;SDS011;35317;51.978;6.296;2022-08-21T07:01:41;25.83;;;15.63;;
49440;SDS011;35317;51.978;6.296;2022-08-21T07:06:42;23.15;;;15.45;;
49440;SDS011;35317;51.978;6.296;2022-08-21T07:11:50;18.45;;;14.55;;
49440;SDS011;35317;51.978;6.296;2022-08-21T07:16:53;20.23;;;13.20;;
49440;SDS011;35317;51.978;6.296;2022-08-21T07:21:55;22.17;;;13.60;;
49440;SDS011;35317;51.978;6.296;2022-08-21T07:27:00;23.48;;;12.93;;
49440;SDS011;35317;51.978;6.296;2022-08-21T07:32:01;19.05;;;11.75;;
49440;SDS011;35317;51.978;6.296;2022-08-21T07:37:02;18.58;;;11.20;;
49440;SDS011;35317;51.978;6.296;2022-08-21T07:42:03;21.88;;;10.95;;
49440;SDS011;35317;51.978;6.296;2022-08-21T07:47:04;19.38;;;10.30;;
49440;SDS011;35317;51.978;6.296;2022-08-21T07:52:05;20.60;;;10.13;;
49440;SDS011;35317;51.978;6.296;2022-08-21T07:57:05;17.13;;;9.82;;
49440;SDS011;35317;51.978;6.296;2022-08-21T08:02:06;19.67;;;9.98;;
49440;SDS011;35317;51.978;6.296;2022-08-21T08:07:07;14.27;;;8.85;;
49440;SDS011;35317;51.978;6.296;2022-08-21T08:12:08;15.05;;;8.73;;
49440;SDS011;35317;51.978;6.296;2022-08-21T08:17:10;16.77;;;9.00;;
49440;SDS011;35317;51.978;6.296;2022-08-21T08:22:14;17.75;;;9.35;;
49440;SDS011;35317;51.978;6.296;2022-08-21T08:27:19;18.08;;;9.23;;
49440;SDS011;35317;51.978;6.296;2022-08-21T08:32:21;15.02;;;8.85;;
49440;SDS011;35317;51.978;6.296;2022-08-21T08:37:22;16.50;;;6.78;;
49440;SDS011;35317;51.978;6.296;2022-08-21T08:42:25;14.70;;;5.40;;
49440;SDS011;35317;51.978;6.296;2022-08-21T08:47:31;13.30;;;5.32;;
49440;SDS011;35317;51.978;6.296;2022-08-21T08:52:36;15.82;;;5.70;;
49440;SDS011;35317;51.978;6.296;2022-08-21T08:57:45;16.58;;;6.47;;
49440;SDS011;35317;51.978;6.296;2022-08-21T09:02:48;13.15;;;5.63;;
49440;SDS011;35317;51.978;6.296;2022-08-21T09:08:14;14.55;;;5.75;;
49440;SDS011;35317;51.978;6.296;2022-08-21T09:13:24;11.77;;;4.77;;
49440;SDS011;35317;51.978;6.296;2022-08-21T09:24:18;16.05;;;5.65;;
49440;SDS011;35317;51.978;6.296;2022-08-21T09:29:38;15.50;;;5.13;;
49440;SDS011;35317;51.978;6.296;2022-08-21T09:34:53;15.38;;;5.30;;
49440;SDS011;35317;51.978;6.296;2022-08-21T09:40:13;13.25;;;5.53;;
49440;SDS011;35317;51.978;6.296;2022-08-21T09:45:38;11.73;;;3.90;;
49440;SDS011;35317;51.978;6.296;2022-08-21T09:50:42;13.27;;;4.10;;
49440;SDS011;35317;51.978;6.296;2022-08-21T09:55:52;9.00;;;3.40;;
49440;SDS011;35317;51.978;6.296;2022-08-21T10:01:24;12.13;;;3.25;;
49440;SDS011;35317;51.978;6.296;2022-08-21T10:06:27;11.25;;;2.90;;
49440;SDS011;35317;51.978;6.296;2022-08-21T10:11:28;10.87;;;3.00;;
49440;SDS011;35317;51.978;6.296;2022-08-21T10:22:12;7.03;;;2.60;;
49440;SDS011;35317;51.978;6.296;2022-08-21T10:27:30;11.23;;;2.30;;
49440;SDS011;35317;51.978;6.296;2022-08-21T10:32:57;8.30;;;2.53;;
49440;SDS011;35317;51.978;6.296;2022-08-21T10:38:25;10.52;;;2.20;;
49440;SDS011;35317;51.978;6.296;2022-08-21T10:48:57;8.77;;;2.60;;
49440;SDS011;35317;51.978;6.296;2022-08-21T10:54:45;7.80;;;2.20;;
49440;SDS011;35317;51.978;6.296;2022-08-21T11:00:10;9.32;;;2.10;;
49440;SDS011;35317;51.978;6.296;2022-08-21T11:05:27;7.50;;;2.17;;
49440;SDS011;35317;51.978;6.296;2022-08-21T11:21:32;8.75;;;2.08;;
49440;SDS011;35317;51.978;6.296;2022-08-21T11:26:56;6.50;;;2.50;;
49440;SDS011;35317;51.978;6.296;2022-08-21T11:32:27;6.35;;;1.98;;
49440;SDS011;35317;51.978;6.296;2022-08-21T11:43:25;7.18;;;1.83;;
49440;SDS011;35317;51.978;6.296;2022-08-21T11:54:07;7.03;;;1.60;;
49440;SDS011;35317;51.978;6.296;2022-08-21T11:59:40;7.18;;;1.85;;
49440;SDS011;35317;51.978;6.296;2022-08-21T12:04:51;8.50;;;1.70;;
49440;SDS011;35317;51.978;6.296;2022-08-21T12:09:58;9.48;;;1.98;;
49440;SDS011;35317;51.978;6.296;2022-08-21T12:25:21;6.35;;;1.67;;
49440;SDS011;35317;51.978;6.296;2022-08-21T12:35:35;5.93;;;1.75;;
49440;SDS011;35317;51.978;6.296;2022-08-21T12:40:59;5.10;;;1.38;;
49440;SDS011;35317;51.978;6.296;2022-08-21T12:46:01;4.40;;;1.58;;
49440;SDS011;35317;51.978;6.296;2022-08-21T12:56:28;4.05;;;1.58;;
49440;SDS011;35317;51.978;6.296;2022-08-21T13:06:40;4.30;;;1.33;;
49440;SDS011;35317;51.978;6.296;2022-08-21T13:11:45;5.82;;;1.65;;
49440;SDS011;35317;51.978;6.296;2022-08-21T13:16:52;6.18;;;1.65;;
49440;SDS011;35317;51.978;6.296;2022-08-21T13:21:56;6.47;;;1.50;;
49440;SDS011;35317;51.978;6.296;2022-08-21T13:26:57;4.65;;;1.30;;
49440;SDS011;35317;51.978;6.296;2022-08-21T13:32:00;6.18;;;1.73;;
49440;SDS011;35317;51.978;6.296;2022-08-21T13:37:08;4.60;;;1.17;;
49440;SDS011;35317;51.978;6.296;2022-08-21T13:42:11;5.05;;;1.50;;
49440;SDS011;35317;51.978;6.296;2022-08-21T13:47:14;7.25;;;1.50;;
49440;SDS011;35317;51.978;6.296;2022-08-21T13:52:18;5.22;;;1.50;;
49440;SDS011;35317;51.978;6.296;2022-08-21T13:57:31;10.65;;;1.33;;
49440;SDS011;35317;51.978;6.296;2022-08-21T14:02:37;4.85;;;1.77;;
49440;SDS011;35317;51.978;6.296;2022-08-21T14:07:41;6.30;;;1.50;;
49440;SDS011;35317;51.978;6.296;2022-08-21T14:18:13;4.97;;;1.50;;
49440;SDS011;35317;51.978;6.296;2022-08-21T14:23:24;4.45;;;1.48;;
49440;SDS011;35317;51.978;6.296;2022-08-21T14:28:27;4.78;;;1.38;;
49440;SDS011;35317;51.978;6.296;2022-08-21T14:33:33;4.63;;;1.40;;
49440;SDS011;35317;51.978;6.296;2022-08-21T14:38:35;5.10;;;1.35;;
49440;SDS011;35317;51.978;6.296;2022-08-21T14:43:38;6.70;;;1.38;;
49440;SDS011;35317;51.978;6.296;2022-08-21T14:48:39;5.28;;;1.15;;
49440;SDS011;35317;51.978;6.296;2022-08-21T14:53:40;5.07;;;1.33;;
49440;SDS011;35317;51.978;6.296;2022-08-21T14:58:41;6.43;;;1.20;;
49440;SDS011;35317;51.978;6.296;2022-08-21T15:03:46;4.75;;;1.50;;
49440;SDS011;35317;51.978;6.296;2022-08-21T15:08:48;4.70;;;1.10;;
49440;SDS011;35317;51.978;6.296;2022-08-21T15:13:50;3.20;;;1.00;;
49440;SDS011;35317;51.978;6.296;2022-08-21T15:18:57;3.15;;;1.23;;
49440;SDS011;35317;51.978;6.296;2022-08-21T15:23:58;3.05;;;1.00;;
49440;SDS011;35317;51.978;6.296;2022-08-21T15:28:59;4.90;;;1.33;;
49440;SDS011;35317;51.978;6.296;2022-08-21T15:34:00;5.38;;;1.40;;
49440;SDS011;35317;51.978;6.296;2022-08-21T15:39:01;3.83;;;1.10;;
49440;SDS011;35317;51.978;6.296;2022-08-21T15:44:02;3.35;;;1.15;;
49440;SDS011;35317;51.978;6.296;2022-08-21T15:49:03;6.45;;;1.50;;
49440;SDS011;35317;51.978;6.296;2022-08-21T15:54:04;5.15;;;1.30;;
49440;SDS011;35317;51.978;6.296;2022-08-21T15:59:08;4.53;;;1.17;;
49440;SDS011;35317;51.978;6.296;2022-08-21T16:04:19;3.42;;;1.10;;
49440;SDS011;35317;51.978;6.296;2022-08-21T16:09:24;4.47;;;1.23;;
49440;SDS011;35317;51.978;6.296;2022-08-21T16:14:25;3.35;;;1.15;;
49440;SDS011;35317;51.978;6.296;2022-08-21T16:19:28;4.25;;;1.20;;
49440;SDS011;35317;51.978;6.296;2022-08-21T16:24:29;6.80;;;1.40;;
49440;SDS011;35317;51.978;6.296;2022-08-21T16:29:32;6.05;;;1.38;;
49440;SDS011;35317;51.978;6.296;2022-08-21T16:34:34;6.22;;;1.38;;
49440;SDS011;35317;51.978;6.296;2022-08-21T16:39:39;5.22;;;2.00;;
49440;SDS011;35317;51.978;6.296;2022-08-21T16:44:40;6.38;;;1.85;;
49440;SDS011;35317;51.978;6.296;2022-08-21T16:49:42;4.45;;;1.27;;
49440;SDS011;35317;51.978;6.296;2022-08-21T16:54:43;5.05;;;1.50;;
49440;SDS011;35317;51.978;6.296;2022-08-21T16:59:44;6.82;;;1.58;;
49440;SDS011;35317;51.978;6.296;2022-08-21T17:04:44;7.20;;;2.00;;
49440;SDS011;35317;51.978;6.296;2022-08-21T17:09:45;5.72;;;1.55;;
49440;SDS011;35317;51.978;6.296;2022-08-21T17:14:46;7.53;;;1.55;;
49440;SDS011;35317;51.978;6.296;2022-08-21T17:19:48;3.55;;;1.42;;
49440;SDS011;35317;51.978;6.296;2022-08-21T17:24:49;9.82;;;1.60;;
49440;SDS011;35317;51.978;6.296;2022-08-21T17:29:49;4.40;;;1.15;;
49440;SDS011;35317;51.978;6.296;2022-08-21T17:34:51;8.20;;;1.50;;
49440;SDS011;35317;51.978;6.296;2022-08-21T17:39:52;7.32;;;1.75;;
49440;SDS011;35317;51.978;6.296;2022-08-21T17:44:53;12.23;;;1.70;;
49440;SDS011;35317;51.978;6.296;2022-08-21T17:49:55;4.57;;;1.70;;
49440;SDS011;35317;51.978;6.296;2022-08-21T17:54:56;6.50;;;1.50;;
49440;SDS011;35317;51.978;6.296;2022-08-21T17:59:57;8.90;;;2.00;;
49440;SDS011;35317;51.978;6.296;2022-08-21T18:04:58;6.93;;;1.35;;
49440;SDS011;35317;51.978;6.296;2022-08-21T18:09:59;8.35;;;2.20;;
49440;SDS011;35317;51.978;6.296;2022-08-21T18:15:02;12.20;;;2.17;;
49440;SDS011;35317;51.978;6.296;2022-08-21T18:20:04;9.68;;;1.90;;
49440;SDS011;35317;51.978;6.296;2022-08-21T18:25:07;9.38;;;2.70;;
49440;SDS011;35317;51.978;6.296;2022-08-21T18:30:08;9.15;;;2.10;;
49440;SDS011;35317;51.978;6.296;2022-08-21T18:35:10;12.18;;;2.88;;
49440;SDS011;35317;51.978;6.296;2022-08-21T18:45:15;9.27;;;2.53;;
49440;SDS011;35317;51.978;6.296;2022-08-21T18:50:20;8.15;;;2.78;;
49440;SDS011;35317;51.978;6.296;2022-08-21T18:55:24;8.60;;;4.07;;
49440;SDS011;35317;51.978;6.296;2022-08-21T19:00:31;8.60;;;2.42;;
49440;SDS011;35317;51.978;6.296;2022-08-21T19:05:38;6.82;;;2.35;;
49440;SDS011;35317;51.978;6.296;2022-08-21T19:10:43;6.43;;;3.08;;
49440;SDS011;35317;51.978;6.296;2022-08-21T19:15:45;7.07;;;2.38;;
49440;SDS011;35317;51.978;6.296;2022-08-21T19:20:55;10.82;;;2.35;;
49440;SDS011;35317;51.978;6.296;2022-08-21T19:25:57;10.75;;;2.35;;
49440;SDS011;35317;51.978;6.296;2022-08-21T19:31:03;8.10;;;2.35;;
49440;SDS011;35317;51.978;6.296;2022-08-21T19:36:10;11.18;;;3.20;;
49440;SDS011;35317;51.978;6.296;2022-08-21T19:41:13;8.13;;;2.25;;
49440;SDS011;35317;51.978;6.296;2022-08-21T19:46:27;6.63;;;2.30;;
49440;SDS011;35317;51.978;6.296;2022-08-21T19:51:32;11.23;;;2.70;;
49440;SDS011;35317;51.978;6.296;2022-08-21T19:56:34;7.07;;;3.47;;
49440;SDS011;35317;51.978;6.296;2022-08-21T20:01:35;11.55;;;2.75;;
49440;SDS011;35317;51.978;6.296;2022-08-21T20:06:36;12.70;;;2.90;;
49440;SDS011;35317;51.978;6.296;2022-08-21T20:11:38;11.23;;;3.60;;
49440;SDS011;35317;51.978;6.296;2022-08-21T20:16:43;8.63;;;3.05;;
49440;SDS011;35317;51.978;6.296;2022-08-21T20:21:46;10.00;;;3.00;;
49440;SDS011;35317;51.978;6.296;2022-08-21T20:26:47;8.57;;;2.58;;
49440;SDS011;35317;51.978;6.296;2022-08-21T20:31:48;9.00;;;2.63;;
49440;SDS011;35317;51.978;6.296;2022-08-21T20:36:49;7.18;;;2.45;;
49440;SDS011;35317;51.978;6.296;2022-08-21T20:41:50;7.70;;;2.50;;
49440;SDS011;35317;51.978;6.296;2022-08-21T20:46:52;9.43;;;3.53;;
49440;SDS011;35317;51.978;6.296;2022-08-21T20:51:53;8.98;;;3.97;;
49440;SDS011;35317;51.978;6.296;2022-08-21T20:56:56;12.70;;;2.78;;
49440;SDS011;35317;51.978;6.296;2022-08-21T21:08:06;8.65;;;3.10;;
49440;SDS011;35317;51.978;6.296;2022-08-21T21:13:33;7.15;;;2.92;;
49440;SDS011;35317;51.978;6.296;2022-08-21T21:19:17;10.93;;;3.25;;
49440;SDS011;35317;51.978;6.296;2022-08-21T21:24:37;10.63;;;4.60;;
49440;SDS011;35317;51.978;6.296;2022-08-21T21:35:00;11.65;;;3.33;;
49440;SDS011;35317;51.978;6.296;2022-08-21T21:46:15;11.13;;;3.20;;
49440;SDS011;35317;51.978;6.296;2022-08-21T22:02:12;11.82;;;3.53;;
49440;SDS011;35317;51.978;6.296;2022-08-21T22:07:52;12.07;;;2.92;;
49440;SDS011;35317;51.978;6.296;2022-08-21T22:13:15;17.33;;;4.05;;
49440;SDS011;35317;51.978;6.296;2022-08-21T22:18:34;10.30;;;3.10;;
49440;SDS011;35317;51.978;6.296;2022-08-21T22:23:47;9.27;;;3.17;;
49440;SDS011;35317;51.978;6.296;2022-08-21T22:28:51;11.88;;;3.15;;
49440;SDS011;35317;51.978;6.296;2022-08-21T22:34:06;9.77;;;3.05;;
49440;SDS011;35317;51.978;6.296;2022-08-21T22:39:25;8.70;;;2.88;;
49440;SDS011;35317;51.978;6.296;2022-08-21T22:44:34;14.15;;;3.40;;
49440;SDS011;35317;51.978;6.296;2022-08-21T22:49:52;8.82;;;3.30;;
49440;SDS011;35317;51.978;6.296;2022-08-21T22:54:57;6.38;;;2.97;;
49440;SDS011;35317;51.978;6.296;2022-08-21T23:00:09;10.77;;;3.45;;
49440;SDS011;35317;51.978;6.296;2022-08-21T23:10:29;9.88;;;3.45;;
49440;SDS011;35317;51.978;6.296;2022-08-21T23:15:35;12.07;;;3.67;;
49440;SDS011;35317;51.978;6.296;2022-08-21T23:20:49;8.90;;;3.40;;
49440;SDS011;35317;51.978;6.296;2022-08-21T23:31:27;11.25;;;3.85;;
49440;SDS011;35317;51.978;6.296;2022-08-21T23:37:18;11.98;;;3.78;;
49440;SDS011;35317;51.978;6.296;2022-08-21T23:58:47;18.65;;;4.18;;
